Millville, Delaware
Current Conditions -  °F | °C
As of 1:53 PM on Saturday 25 Oct 2014 (Local Time) from KOXB Reporting Station
Clear Clear  
Wind Chill: 68°   Ceiling: Unl
Heat Index: 68°   Visibility: 10mi
Dew Point: 44°   Wind: 6mph
Humidity: 42%   Direction: 270°W
Pressure: 29.84"   Gusts: NA
Location:  38.55°N, 75.12°W
Report Text: KOXB 251753Z AUTO 27005KT 10SM CLR 20/07 A2984 RMK AO2 SLP105 T02000067 10206 20083 58034 TSNO
Loading
Personal Weather Stations






























Interactive Weather Map
Tropical Storm Tracking
New forecast layout! Learn more

10-Day Weather Forecast

Advertisements
Track Severe Weather on mobile